createdAt,value
2018-03-11T00:00:55.941Z,27.17
2018-03-11T00:02:01.596Z,27.83
2018-03-11T00:03:05.849Z,28.47
2018-03-11T00:04:10.019Z,29.43
2018-03-11T00:05:14.228Z,26.23
2018-03-11T00:06:23.083Z,28.77
2018-03-11T00:07:29.644Z,29.10
2018-03-11T00:08:37.023Z,26.93
2018-03-11T00:09:41.198Z,29.40
2018-03-11T00:10:49.103Z,29.67
2018-03-11T00:11:56.524Z,26.83
2018-03-11T00:13:01.856Z,27.20
2018-03-11T00:14:06.083Z,27.10
2018-03-11T00:15:10.334Z,27.00
2018-03-11T00:16:19.207Z,31.30
2018-03-11T00:17:24.281Z,29.20
2018-03-11T00:18:29.888Z,29.47
2018-03-11T00:19:34.152Z,30.60
2018-03-11T00:20:38.337Z,29.33
2018-03-11T00:21:42.557Z,28.20
2018-03-11T00:22:48.705Z,28.80
2018-03-11T00:23:54.528Z,27.57
2018-03-11T00:24:59.583Z,30.10
2018-03-11T00:26:03.773Z,29.40
2018-03-11T00:27:07.963Z,30.10
2018-03-11T00:28:12.147Z,27.33
2018-03-11T00:29:16.886Z,29.80
2018-03-11T00:30:22.268Z,29.03
2018-03-11T00:31:28.317Z,30.10
2018-03-11T00:32:33.473Z,29.90
2018-03-11T00:33:37.686Z,28.57
2018-03-11T00:34:41.906Z,29.43
2018-03-11T00:35:49.284Z,29.97
2018-03-11T00:37:01.244Z,28.70
2018-03-11T00:38:05.460Z,29.83
2018-03-11T00:39:09.658Z,29.70
2018-03-11T00:40:13.924Z,30.63
2018-03-11T00:41:24.082Z,29.47
2018-03-11T00:42:31.133Z,30.77
2018-03-11T00:43:35.532Z,31.30
2018-03-11T00:44:42.997Z,31.00
2018-03-11T00:45:53.605Z,30.67
2018-03-11T00:47:03.059Z,29.20
2018-03-11T00:48:08.016Z,29.20
2018-03-11T00:49:12.196Z,30.73
2018-03-11T00:50:24.974Z,29.30
2018-03-11T00:51:31.787Z,30.60
2018-03-11T00:52:36.175Z,30.50
2018-03-11T00:53:41.152Z,30.70
2018-03-11T00:54:48.692Z,28.60
2018-03-11T00:55:58.636Z,29.13
2018-03-11T00:57:04.618Z,29.10
2018-03-11T00:58:08.871Z,28.27
2018-03-11T00:59:13.075Z,27.27
2018-03-11T01:00:24.774Z,28.63
2018-03-11T01:01:30.917Z,28.83
2018-03-11T01:02:35.133Z,29.23
2018-03-11T01:03:39.398Z,29.37
2018-03-11T01:04:44.484Z,28.90
2018-03-11T01:05:55.689Z,29.97
2018-03-11T01:07:04.868Z,28.37
2018-03-11T01:08:09.892Z,27.20
2018-03-11T01:09:14.515Z,28.60
2018-03-11T01:10:25.648Z,28.83
2018-03-11T01:11:33.262Z,29.03
2018-03-11T01:12:38.300Z,27.47
2018-03-11T01:13:43.337Z,30.30
2018-03-11T01:14:50.980Z,29.33
2018-03-11T01:16:00.194Z,31.00
2018-03-11T01:17:05.497Z,29.83
2018-03-11T01:18:09.719Z,28.60
2018-03-11T01:19:13.990Z,28.43
2018-03-11T01:20:22.905Z,28.57
2018-03-11T01:21:30.853Z,28.67
2018-03-11T01:22:35.394Z,26.80
2018-03-11T01:23:39.589Z,28.50
2018-03-11T01:24:43.777Z,28.03
2018-03-11T01:25:52.686Z,28.73
2018-03-11T01:27:00.780Z,28.40
2018-03-11T01:28:05.538Z,28.90
2018-03-11T01:29:09.733Z,27.67
2018-03-11T01:30:13.936Z,28.10
2018-03-11T01:31:22.953Z,29.60
2018-03-11T01:32:29.153Z,28.37
2018-03-11T01:33:34.722Z,28.00
2018-03-11T01:34:38.907Z,27.13
2018-03-11T01:35:43.196Z,27.97
2018-03-11T01:36:51.983Z,26.37
2018-03-11T01:37:59.874Z,26.80
2018-03-11T01:39:05.429Z,27.50
2018-03-11T01:40:10.402Z,27.40
2018-03-11T01:41:16.486Z,28.33
2018-03-11T01:42:25.678Z,28.60
2018-03-11T01:43:32.258Z,27.67
2018-03-11T01:44:36.675Z,27.90
2018-03-11T01:45:40.869Z,28.07
2018-03-11T01:46:47.835Z,29.60
2018-03-11T01:47:56.186Z,28.73
2018-03-11T01:49:01.755Z,28.30
2018-03-11T01:50:06.807Z,28.03
2018-03-11T01:51:11.045Z,29.53
2018-03-11T01:52:17.440Z,28.90
2018-03-11T01:53:26.136Z,28.70
2018-03-11T01:54:32.638Z,27.57
2018-03-11T01:55:36.922Z,26.60
2018-03-11T01:56:41.260Z,26.17
2018-03-11T01:57:47.300Z,29.37
2018-03-11T01:58:54.239Z,29.07
2018-03-11T01:59:59.792Z,29.77
2018-03-11T02:01:04.799Z,29.20
2018-03-11T02:02:09.007Z,28.37
2018-03-11T02:03:13.320Z,27.50
2018-03-11T02:04:19.801Z,27.63
2018-03-11T02:05:26.035Z,27.70
2018-03-11T02:06:32.996Z,27.57
2018-03-11T02:07:37.237Z,30.90
2018-03-11T02:08:41.408Z,29.57
2018-03-11T02:09:49.035Z,31.50
2018-03-11T02:10:56.156Z,30.03
2018-03-11T02:12:03.468Z,27.20
2018-03-11T02:13:08.427Z,29.70
2018-03-11T02:14:12.635Z,30.10
2018-03-11T02:15:20.378Z,31.97
2018-03-11T02:16:28.439Z,29.10
2018-03-11T02:17:34.905Z,28.40
2018-03-11T02:18:39.125Z,29.60
2018-03-11T02:19:43.308Z,28.60
2018-03-11T02:20:53.278Z,31.53
2018-03-11T02:22:00.585Z,29.87
2018-03-11T02:23:05.352Z,29.63
2018-03-11T02:24:09.555Z,28.53
2018-03-11T02:25:17.269Z,27.80
2018-03-11T02:26:25.777Z,25.93
2018-03-11T02:27:32.129Z,28.10
2018-03-11T02:28:36.565Z,29.70
2018-03-11T02:29:40.846Z,28.10
2018-03-11T02:30:50.786Z,28.10
2018-03-11T02:31:57.001Z,26.40
2018-03-11T02:33:04.970Z,27.23
2018-03-11T02:34:09.183Z,26.10
2018-03-11T02:35:13.361Z,29.60
2018-03-11T02:36:21.716Z,26.20
2018-03-11T02:37:27.797Z,26.43
2018-03-11T02:38:35.110Z,28.47
2018-03-11T02:39:39.347Z,28.00
2018-03-11T02:40:43.568Z,28.30
2018-03-11T02:41:52.529Z,27.40
2018-03-11T02:42:58.412Z,27.43
2018-03-11T02:44:05.209Z,28.07
2018-03-11T02:45:09.401Z,29.40
2018-03-11T02:46:13.582Z,28.57
2018-03-11T02:47:23.138Z,30.70
2018-03-11T02:48:29.427Z,31.70
2018-03-11T02:49:36.431Z,31.07
2018-03-11T02:50:40.652Z,30.97
2018-03-11T02:51:48.034Z,31.83
2018-03-11T02:52:54.928Z,34.50
2018-03-11T02:54:01.359Z,31.53
2018-03-11T02:55:05.885Z,32.30
2018-03-11T02:56:10.087Z,32.07
2018-03-11T02:57:14.258Z,33.40
2018-03-11T02:58:24.577Z,34.90
2018-03-11T02:59:32.135Z,32.77
2018-03-11T03:00:36.308Z,33.17
2018-03-11T03:01:40.501Z,34.33
2018-03-11T03:06:15.082Z,30.17
2018-03-11T03:07:23.773Z,32.27
2018-03-11T03:08:31.341Z,32.50
2018-03-11T03:09:35.845Z,33.20
2018-03-11T03:10:40.087Z,33.37
2018-03-11T03:11:53.592Z,32.80
2018-03-11T03:13:01.201Z,35.97
2018-03-11T03:14:06.203Z,35.37
2018-03-11T03:15:10.509Z,35.63
2018-03-11T03:16:21.181Z,33.90
2018-03-11T03:17:32.983Z,32.30
2018-03-11T03:18:37.942Z,31.40
2018-03-11T03:19:42.892Z,32.97
2018-03-11T03:20:53.724Z,30.33
2018-03-11T03:22:01.441Z,33.97
2018-03-11T03:23:05.851Z,35.30
2018-03-11T03:24:10.810Z,38.23
2018-03-11T03:26:32.843Z,35.30
2018-03-11T03:27:37.054Z,32.57
2018-03-11T03:28:42.018Z,33.70
2018-03-11T03:29:50.759Z,35.60
2018-03-11T03:30:57.510Z,33.73
2018-03-11T03:32:04.084Z,32.93
2018-03-11T03:33:08.301Z,32.97
2018-03-11T03:34:12.595Z,31.23
2018-03-11T03:35:21.362Z,33.10
2018-03-11T03:36:29.386Z,35.17
2018-03-11T03:37:34.470Z,34.10
2018-03-11T03:38:38.690Z,33.80
2018-03-11T03:39:42.905Z,34.40
2018-03-11T03:40:50.702Z,32.53
2018-03-11T03:41:57.938Z,33.90
2018-03-11T03:43:05.050Z,31.40
2018-03-11T03:44:09.267Z,34.07
2018-03-11T03:45:13.525Z,31.20
2018-03-11T03:46:25.999Z,32.70
2018-03-11T03:47:32.836Z,30.30
2018-03-11T03:48:37.320Z,30.50
2018-03-11T03:49:41.541Z,30.73
2018-03-11T03:50:48.470Z,31.60
2018-03-11T03:51:58.956Z,31.13
2018-03-11T03:53:05.461Z,29.03
2018-03-11T03:54:09.727Z,30.07
2018-03-11T03:55:14.111Z,30.57
2018-03-11T03:56:23.056Z,28.40
2018-03-11T03:57:32.559Z,29.23
2018-03-11T03:58:39.797Z,32.73
2018-03-11T03:59:46.358Z,29.40
2018-03-11T04:00:57.755Z,30.77
2018-03-11T04:02:03.792Z,29.53
2018-03-11T04:03:07.992Z,29.07
2018-03-11T04:04:12.191Z,28.20
2018-03-11T04:05:19.491Z,28.63
2018-03-11T04:06:27.512Z,26.77
2018-03-11T04:07:33.041Z,27.83
2018-03-11T04:08:37.236Z,28.37
2018-03-11T04:09:41.444Z,29.70
2018-03-11T04:10:50.019Z,28.97
2018-03-11T04:11:57.290Z,30.30
2018-03-11T04:13:03.601Z,32.47
2018-03-11T04:14:08.787Z,31.57
2018-03-11T04:15:12.966Z,32.30
2018-03-11T04:16:21.457Z,33.23
2018-03-11T04:17:29.308Z,30.80
2018-03-11T04:18:34.040Z,33.97
2018-03-11T04:19:38.530Z,33.07
2018-03-11T04:20:42.703Z,33.67
2018-03-11T04:21:52.417Z,31.90
2018-03-11T04:22:59.386Z,33.67
2018-03-11T04:24:06.178Z,34.10
2018-03-11T04:25:10.610Z,34.30
2018-03-11T04:26:15.145Z,31.27
2018-03-11T04:27:27.294Z,34.20
2018-03-11T04:28:33.518Z,33.50
2018-03-11T04:29:37.934Z,34.07
2018-03-11T04:30:42.124Z,31.90
2018-03-11T04:31:51.258Z,32.77
2018-03-11T04:33:00.214Z,35.07
2018-03-11T04:34:05.070Z,31.80
2018-03-11T04:35:09.258Z,33.77
2018-03-11T04:36:13.442Z,31.30
2018-03-11T04:37:23.257Z,32.20
2018-03-11T04:38:31.242Z,32.13
2018-03-11T04:39:36.147Z,31.90
2018-03-11T04:40:40.390Z,38.33
2018-03-11T04:41:45.075Z,35.40
2018-03-11T04:42:53.998Z,37.00
2018-03-11T04:44:01.739Z,38.73
2018-03-11T04:45:06.906Z,34.50
2018-03-11T04:46:11.142Z,38.40
2018-03-11T04:47:19.547Z,35.33
2018-03-11T04:48:25.947Z,35.00
2018-03-11T04:49:32.585Z,35.07
2018-03-11T04:50:37.111Z,34.00
2018-03-11T04:51:42.126Z,32.40
2018-03-11T04:52:48.862Z,33.70
2018-03-11T04:53:58.490Z,33.77
2018-03-11T04:55:04.567Z,36.63
2018-03-11T04:56:08.774Z,35.07
2018-03-11T04:57:13.033Z,34.73
2018-03-11T04:58:21.511Z,35.40
2018-03-11T04:59:29.174Z,32.53
2018-03-11T05:00:34.259Z,34.63
2018-03-11T05:01:39.213Z,34.13
2018-03-11T05:02:43.443Z,35.97
2018-03-11T05:03:50.777Z,34.67
2018-03-11T05:04:57.181Z,33.17
2018-03-11T05:06:02.660Z,31.77
2018-03-11T05:07:06.950Z,32.53
2018-03-11T05:08:12.153Z,32.00
2018-03-11T05:09:20.645Z,34.70
2018-03-11T05:10:27.400Z,32.83
2018-03-11T05:11:33.787Z,34.90
2018-03-11T05:12:37.971Z,35.47
2018-03-11T05:13:42.194Z,34.20
2018-03-11T05:14:50.122Z,36.23
2018-03-11T05:16:01.685Z,34.40
2018-03-11T05:17:06.751Z,36.43
2018-03-11T05:18:13.245Z,34.23
2018-03-11T05:19:25.380Z,33.10
2018-03-11T05:20:32.643Z,34.00
2018-03-11T05:21:37.607Z,33.67
2018-03-11T05:22:42.531Z,33.93
2018-03-11T05:23:59.845Z,35.30
2018-03-11T05:25:20.586Z,34.60
2018-03-11T05:26:29.142Z,33.33
2018-03-11T05:27:34.856Z,33.07
2018-03-11T05:28:39.033Z,34.70
2018-03-11T05:29:43.227Z,35.27
2018-03-11T05:30:58.043Z,35.10
2018-03-11T05:32:04.874Z,35.63
2018-03-11T05:33:09.138Z,36.27
2018-03-11T05:34:13.299Z,36.97
2018-03-11T05:35:23.774Z,36.10
2018-03-11T05:36:31.654Z,36.50
2018-03-11T05:37:37.003Z,38.37
2018-03-11T05:38:41.158Z,35.67
2018-03-11T05:39:47.100Z,36.40
2018-03-11T05:40:55.294Z,35.60
2018-03-11T05:42:04.308Z,34.87
2018-03-11T05:43:09.308Z,33.53
2018-03-11T05:44:13.500Z,34.17
2018-03-11T05:45:24.557Z,35.90
2018-03-11T05:46:32.111Z,35.97
2018-03-11T05:47:36.782Z,36.60
2018-03-11T05:48:41.016Z,35.10
2018-03-11T05:49:52.287Z,36.40
2018-03-11T05:51:02.835Z,36.53
2018-03-11T05:52:07.600Z,36.40
2018-03-11T05:53:11.785Z,36.37
2018-03-11T05:54:18.163Z,38.00
2018-03-11T05:55:27.982Z,39.30
2018-03-11T05:56:34.404Z,36.93
2018-03-11T05:57:38.627Z,34.80
2018-03-11T05:58:42.825Z,36.60
2018-03-11T05:59:53.619Z,34.73
2018-03-11T06:01:01.522Z,35.97
2018-03-11T06:02:06.653Z,35.60
2018-03-11T06:03:10.867Z,37.00
2018-03-11T06:04:18.231Z,38.20
2018-03-11T06:05:25.666Z,36.20
2018-03-11T06:06:31.564Z,34.70
2018-03-11T06:07:36.485Z,35.87
2018-03-11T06:08:40.718Z,34.57
2018-03-11T06:09:45.684Z,34.60
2018-03-11T06:10:54.190Z,35.87
2018-03-11T06:12:01.259Z,34.73
2018-03-11T06:13:05.797Z,38.10
2018-03-11T06:14:10.045Z,35.07
2018-03-11T06:15:17.073Z,34.20
2018-03-11T06:16:24.351Z,35.27
2018-03-11T06:17:30.579Z,33.27
2018-03-11T06:18:35.156Z,32.67
2018-03-11T06:19:39.389Z,32.53
2018-03-11T06:20:44.348Z,34.17
2018-03-11T06:21:52.697Z,33.10
2018-03-11T06:22:58.622Z,33.90
2018-03-11T06:24:05.572Z,32.40
2018-03-11T06:25:10.277Z,33.90
2018-03-11T06:26:17.442Z,32.30
2018-03-11T06:27:24.087Z,31.50
2018-03-11T06:28:29.310Z,32.03
2018-03-11T06:29:35.586Z,31.00
2018-03-11T06:30:39.798Z,32.00
2018-03-11T06:31:44.010Z,31.73
2018-03-11T06:32:52.360Z,32.20
2018-03-11T06:33:59.507Z,33.10
2018-03-11T06:35:05.229Z,32.07
2018-03-11T06:36:09.459Z,32.57
2018-03-11T06:37:13.664Z,32.20
2018-03-11T06:38:22.935Z,31.00
2018-03-11T06:39:31.682Z,32.13
2018-03-11T06:40:36.497Z,30.80
2018-03-11T06:41:40.712Z,32.47
2018-03-11T06:42:45.706Z,30.37
2018-03-11T06:43:58.990Z,28.90
2018-03-11T06:45:06.190Z,31.60
2018-03-11T06:46:10.378Z,29.47
2018-03-11T06:47:15.095Z,29.50
2018-03-11T06:48:26.622Z,30.03
2018-03-11T06:49:55.174Z,28.70
2018-03-11T06:51:00.175Z,29.70
2018-03-11T06:52:06.374Z,29.83
2018-03-11T06:53:10.547Z,30.20
2018-03-11T06:54:20.662Z,29.10
2018-03-11T06:55:30.123Z,27.87
2018-03-11T06:56:41.405Z,29.00
2018-03-11T06:57:55.957Z,29.27
2018-03-11T06:59:08.849Z,28.20
2018-03-11T07:00:16.298Z,27.37
2018-03-11T07:01:43.057Z,28.63
2018-03-11T07:02:57.833Z,27.00
2018-03-11T07:04:07.521Z,28.23
2018-03-11T07:05:12.512Z,29.50
2018-03-11T07:06:29.640Z,28.97
2018-03-11T07:07:36.078Z,27.10
2018-03-11T07:08:40.364Z,26.90
2018-03-11T07:11:53.601Z,26.80
2018-03-11T07:13:25.420Z,27.83
2018-03-11T07:14:34.444Z,27.77
2018-03-11T07:15:38.666Z,28.00
2018-03-11T07:16:53.574Z,26.90
2018-03-11T07:18:02.389Z,26.10
2018-03-11T07:19:06.643Z,25.20
2018-03-11T07:20:11.653Z,26.27
2018-03-11T07:21:23.218Z,26.40
2018-03-11T07:22:32.417Z,26.80
2018-03-11T07:23:38.169Z,25.60
2018-03-11T07:24:42.366Z,24.70
2018-03-11T07:25:53.327Z,25.67
2018-03-11T07:27:07.054Z,24.47
2018-03-11T07:28:11.880Z,26.47
2018-03-11T07:29:26.759Z,26.43
2018-03-11T07:30:33.883Z,24.97
2018-03-11T07:31:38.086Z,23.87
2018-03-11T07:32:43.037Z,24.00
2018-03-11T07:33:53.173Z,23.70
2018-03-11T07:35:03.545Z,24.70
2018-03-11T07:36:07.853Z,25.40
2018-03-11T07:37:12.038Z,23.57
2018-03-11T07:38:16.303Z,24.53
2018-03-11T07:39:25.594Z,22.57
2018-03-11T07:40:30.076Z,23.17
2018-03-11T07:41:36.427Z,22.30
2018-03-11T07:42:41.100Z,21.83
2018-03-11T07:43:45.347Z,21.17
2018-03-11T07:44:54.414Z,21.60
2018-03-11T07:46:01.326Z,20.47
2018-03-11T07:47:05.522Z,20.00
2018-03-11T07:48:09.723Z,20.63
2018-03-11T07:49:14.064Z,18.17
2018-03-11T07:50:20.806Z,21.00
2018-03-11T07:51:27.419Z,19.50
2018-03-11T07:52:31.654Z,20.00
2018-03-11T07:53:36.632Z,19.33
2018-03-11T07:54:40.891Z,18.80
2018-03-11T07:55:49.814Z,19.10
2018-03-11T07:56:56.986Z,18.17
2018-03-11T07:58:01.504Z,17.63
2018-03-11T07:59:05.716Z,17.53
2018-03-11T08:00:10.784Z,18.77
2018-03-11T08:01:15.857Z,17.57
2018-03-11T08:02:20.191Z,16.13
2018-03-11T08:03:27.257Z,16.00
2018-03-11T08:04:31.821Z,16.87
2018-03-11T08:05:36.067Z,17.10
2018-03-11T08:06:40.263Z,15.87
2018-03-11T08:07:44.592Z,16.13
2018-03-11T08:08:50.869Z,14.87
2018-03-11T08:09:55.588Z,17.57
2018-03-11T08:10:59.925Z,15.83
2018-03-11T08:12:04.119Z,17.00
2018-03-11T08:13:08.305Z,14.73
2018-03-11T08:14:12.482Z,16.70
2018-03-11T08:15:18.503Z,17.10
2018-03-11T08:16:27.784Z,15.50
2018-03-11T08:17:32.022Z,16.20
2018-03-11T08:18:36.208Z,15.77
2018-03-11T08:19:43.973Z,15.60
2018-03-11T08:21:03.651Z,15.80
2018-03-11T08:22:08.697Z,15.67
2018-03-11T08:23:12.882Z,16.03
2018-03-11T08:24:17.082Z,14.50
2018-03-11T08:25:25.383Z,15.30
2018-03-11T08:26:29.861Z,14.30
2018-03-11T08:27:34.079Z,15.10
2018-03-11T08:28:38.269Z,14.10
2018-03-11T08:29:42.489Z,14.90
2018-03-11T08:30:52.811Z,14.57
2018-03-11T08:31:59.274Z,13.60
2018-03-11T08:33:04.238Z,14.07
2018-03-11T08:34:08.431Z,14.10
2018-03-11T08:35:12.694Z,13.63
2018-03-11T08:36:18.740Z,13.47
2018-03-11T08:37:27.172Z,12.40
2018-03-11T08:38:32.140Z,12.53
2018-03-11T08:39:36.339Z,12.00
2018-03-11T08:40:41.342Z,11.97
2018-03-11T08:41:48.069Z,12.90
2018-03-11T08:42:55.862Z,12.47
2018-03-11T08:44:04.547Z,12.40
2018-03-11T08:45:08.744Z,11.90
2018-03-11T08:46:12.967Z,11.50
2018-03-11T08:47:20.026Z,11.50
2018-03-11T08:48:24.263Z,12.07
2018-03-11T08:49:28.745Z,10.77
2018-03-11T08:50:33.006Z,11.33
2018-03-11T08:51:37.196Z,11.90
2018-03-11T08:52:42.140Z,11.60
2018-03-11T08:53:50.876Z,11.23
2018-03-11T08:54:56.039Z,12.10
2018-03-11T08:56:00.402Z,11.33
2018-03-11T08:57:10.389Z,11.80
2018-03-11T08:58:16.793Z,11.53
2018-03-11T08:59:21.106Z,11.60
2018-03-11T09:00:28.444Z,11.63
2018-03-11T09:01:33.000Z,11.43
2018-03-11T09:02:37.188Z,12.07
2018-03-11T09:03:41.373Z,12.60
2018-03-11T09:04:45.623Z,12.10
2018-03-11T09:05:54.519Z,10.50
2018-03-11T09:07:03.290Z,11.00
2018-03-11T09:08:07.670Z,11.80
2018-03-11T09:09:11.862Z,11.47
2018-03-11T09:10:21.497Z,12.17
2018-03-11T09:11:37.952Z,12.90
2018-03-11T09:12:43.286Z,11.97
2018-03-11T09:13:51.197Z,12.70
2018-03-11T09:15:01.008Z,11.10
2018-03-11T09:16:05.230Z,11.80
2018-03-11T09:17:09.408Z,11.90
2018-03-11T09:18:14.690Z,11.47
2018-03-11T09:19:24.090Z,11.07
2018-03-11T09:20:30.990Z,12.27
2018-03-11T09:21:35.809Z,12.60
2018-03-11T09:22:39.994Z,11.00
2018-03-11T09:23:45.868Z,11.60
2018-03-11T09:24:54.021Z,11.90
2018-03-11T09:26:03.032Z,11.13
2018-03-11T09:27:08.035Z,11.30
2018-03-11T09:28:12.210Z,12.90
2018-03-11T09:29:21.779Z,11.07
2018-03-11T09:30:26.865Z,10.67
2018-03-11T09:31:34.055Z,11.50
2018-03-11T09:32:39.028Z,12.63
2018-03-11T09:33:43.273Z,11.17
2018-03-11T09:34:55.146Z,11.90
2018-03-11T09:36:06.323Z,11.07
2018-03-11T09:37:10.597Z,11.20
2018-03-11T09:38:15.970Z,11.93
2018-03-11T09:39:22.024Z,11.03
2018-03-11T09:40:55.860Z,11.20
2018-03-11T09:42:04.703Z,11.53
2018-03-11T09:43:09.041Z,12.40
2018-03-11T09:44:14.128Z,11.23
2018-03-11T09:45:22.330Z,10.93
2018-03-11T09:46:34.056Z,11.00
2018-03-11T09:47:39.032Z,11.53
2018-03-11T09:48:43.224Z,10.93
2018-03-11T09:49:54.496Z,12.07
2018-03-11T09:51:06.521Z,11.70
2018-03-11T09:52:12.630Z,12.07
2018-03-11T09:53:19.274Z,11.27
2018-03-11T09:54:25.149Z,11.43
2018-03-11T09:55:34.920Z,11.20
2018-03-11T09:56:39.898Z,11.37
2018-03-11T09:57:45.425Z,10.80
2018-03-11T09:58:53.876Z,11.77
2018-03-11T10:00:03.251Z,10.77
2018-03-11T10:01:24.152Z,11.80
2018-03-11T10:02:32.215Z,10.40
2018-03-11T10:03:36.408Z,11.20
2018-03-11T10:04:41.351Z,11.70
2018-03-11T10:05:46.450Z,11.70
2018-03-11T10:06:52.468Z,11.10
2018-03-11T10:07:58.412Z,10.73
2018-03-11T10:09:03.089Z,10.40
2018-03-11T10:10:08.045Z,12.00
2018-03-11T10:11:12.225Z,12.10
2018-03-11T10:12:19.771Z,10.23
2018-03-11T10:13:27.907Z,12.93
2018-03-11T10:14:32.460Z,11.20
2018-03-11T10:15:37.514Z,11.00
2018-03-11T10:16:41.777Z,11.50
2018-03-11T10:17:48.990Z,11.43
2018-03-11T10:18:54.691Z,11.50
2018-03-11T10:20:02.222Z,11.00
2018-03-11T10:21:06.527Z,11.50
2018-03-11T10:22:11.483Z,12.07
2018-03-11T10:23:17.127Z,12.97
2018-03-11T10:24:23.881Z,11.43
2018-03-11T10:25:31.949Z,11.37
2018-03-11T10:26:36.984Z,12.23
2018-03-11T10:27:41.171Z,12.00
2018-03-11T10:28:48.482Z,11.57
2018-03-11T10:29:59.160Z,11.13
2018-03-11T10:31:04.868Z,12.63
2018-03-11T10:32:09.109Z,10.60
2018-03-11T10:33:14.089Z,12.03
2018-03-11T10:34:25.671Z,12.67
2018-03-11T10:35:32.141Z,11.43
2018-03-11T10:36:36.341Z,10.90
2018-03-11T10:37:40.607Z,12.07
2018-03-11T10:38:48.754Z,12.57
2018-03-11T10:39:54.984Z,11.60
2018-03-11T10:41:03.037Z,11.03
2018-03-11T10:42:07.294Z,12.70
2018-03-11T10:43:11.559Z,12.70
2018-03-11T10:44:16.883Z,10.80
2018-03-11T10:45:23.774Z,11.47
2018-03-11T10:46:30.363Z,13.43
2018-03-11T10:47:34.587Z,11.80
2018-03-11T10:48:39.582Z,13.23
2018-03-11T10:49:43.760Z,10.53
2018-03-11T10:50:52.322Z,13.20
2018-03-11T10:51:58.644Z,11.97
2018-03-11T10:53:04.008Z,12.27
2018-03-11T10:54:08.289Z,12.13
2018-03-11T10:55:12.496Z,11.60
2018-03-11T10:56:20.689Z,11.83
2018-03-11T10:57:25.748Z,10.77
2018-03-11T10:58:34.777Z,11.93
2018-03-11T10:59:39.025Z,11.53
2018-03-11T11:00:44.098Z,11.43
2018-03-11T11:02:01.404Z,11.80
2018-03-11T11:03:12.132Z,10.57
2018-03-11T11:04:34.298Z,10.90
2018-03-11T11:05:38.499Z,12.43
2018-03-11T11:06:42.666Z,11.50
2018-03-11T11:07:52.930Z,10.93
2018-03-11T11:09:00.696Z,10.50
2018-03-11T11:10:04.928Z,10.83
2018-03-11T11:11:09.112Z,10.30
2018-03-11T11:12:13.322Z,10.43
2018-03-11T11:13:38.660Z,9.33
2018-03-11T11:14:47.046Z,10.57
2018-03-11T11:15:55.155Z,10.90
2018-03-11T11:17:02.593Z,11.77
2018-03-11T11:18:06.791Z,11.50
2018-03-11T11:19:10.986Z,11.63
2018-03-11T11:20:19.808Z,12.20
2018-03-11T11:21:28.479Z,10.87
2018-03-11T11:22:33.955Z,10.63
2018-03-11T11:23:38.280Z,10.93
2018-03-11T11:24:42.470Z,11.00
2018-03-11T11:25:52.064Z,11.90
2018-03-11T11:27:02.807Z,10.83
2018-03-11T11:28:07.391Z,9.27
2018-03-11T11:29:11.611Z,10.10
2018-03-11T11:30:18.828Z,11.73
2018-03-11T11:31:25.086Z,9.03
2018-03-11T11:32:33.216Z,9.30
2018-03-11T11:33:37.555Z,9.70
2018-03-11T11:34:42.740Z,9.83
2018-03-11T11:36:04.762Z,10.30
2018-03-11T11:37:09.063Z,10.50
2018-03-11T11:38:13.260Z,9.03
2018-03-11T11:39:22.397Z,10.13
2018-03-11T11:40:29.804Z,10.03
2018-03-11T11:41:34.586Z,9.83
2018-03-11T11:42:38.822Z,9.57
2018-03-11T11:43:43.028Z,9.23
2018-03-11T11:44:51.817Z,10.33
2018-03-11T11:46:01.185Z,9.67
2018-03-11T11:47:05.424Z,9.40
2018-03-11T11:48:09.662Z,9.37
2018-03-11T11:49:13.924Z,9.10
2018-03-11T11:50:24.136Z,9.00
2018-03-11T11:51:32.229Z,9.50
2018-03-11T11:52:36.432Z,8.70
2018-03-11T11:53:42.455Z,9.30
2018-03-11T11:54:49.408Z,8.90
2018-03-11T11:57:14.821Z,9.70
2018-03-11T11:58:27.850Z,8.83
2018-03-11T11:59:32.141Z,9.20
2018-03-11T12:00:37.110Z,8.40
2018-03-11T12:01:41.288Z,8.73
2018-03-11T12:02:49.331Z,9.57
2018-03-11T12:03:55.806Z,7.47
2018-03-11T12:05:00.981Z,7.67
2018-03-11T12:06:05.931Z,6.80
2018-03-11T12:07:10.116Z,8.30
2018-03-11T12:08:18.467Z,7.40
2018-03-11T12:09:24.755Z,7.57
2018-03-11T12:10:30.916Z,7.47
2018-03-11T12:11:35.285Z,6.60
2018-03-11T12:12:39.463Z,7.20
2018-03-11T12:13:44.423Z,6.77
2018-03-11T12:14:56.866Z,6.77
2018-03-11T12:16:02.970Z,7.13
2018-03-11T12:17:07.279Z,6.20
2018-03-11T12:18:12.216Z,6.73
2018-03-11T12:19:18.785Z,6.30
2018-03-11T12:20:25.461Z,6.10
2018-03-11T12:21:30.679Z,7.07
2018-03-11T12:22:35.665Z,6.60
2018-03-11T12:23:39.917Z,7.70
2018-03-11T12:26:02.297Z,7.37
2018-03-11T12:28:26.220Z,7.27
2018-03-11T12:29:32.517Z,8.07
2018-03-11T12:30:37.469Z,7.20
2018-03-11T12:31:41.632Z,7.53
2018-03-11T12:32:49.077Z,8.30
2018-03-11T12:33:56.215Z,8.20
2018-03-11T12:35:03.461Z,7.10
2018-03-11T12:36:07.665Z,7.47
2018-03-11T12:37:11.894Z,7.83
2018-03-11T12:38:22.470Z,7.60
2018-03-11T12:39:28.042Z,7.53
2018-03-11T12:40:32.242Z,8.10
2018-03-11T12:41:37.183Z,7.53
2018-03-11T12:42:41.430Z,7.60
2018-03-11T12:43:45.882Z,7.47
2018-03-11T12:44:53.890Z,6.70
2018-03-11T12:45:59.300Z,7.27
2018-03-11T12:47:04.289Z,5.90
2018-03-11T12:48:08.468Z,6.77
2018-03-11T12:49:13.473Z,6.17
2018-03-11T12:50:25.428Z,6.80
2018-03-11T12:51:33.513Z,7.10
2018-03-11T12:52:42.605Z,5.80
2018-03-11T12:53:51.569Z,6.00
2018-03-11T12:54:59.314Z,6.37
2018-03-11T12:56:03.751Z,5.47
2018-03-11T12:57:07.950Z,5.20
2018-03-11T12:58:12.152Z,5.40
2018-03-11T12:59:17.371Z,5.60
2018-03-11T13:00:22.035Z,5.90
2018-03-11T13:01:26.503Z,5.77
2018-03-11T13:02:30.691Z,5.10
2018-03-11T13:03:34.868Z,6.43
2018-03-11T13:04:39.800Z,5.73
2018-03-11T13:05:46.385Z,5.93
2018-03-11T13:06:51.895Z,5.70
2018-03-11T13:07:56.746Z,5.27
2018-03-11T13:09:01.249Z,5.70
2018-03-11T13:10:06.187Z,5.70
2018-03-11T13:11:11.175Z,5.67
2018-03-11T13:12:20.013Z,5.07
2018-03-11T13:13:26.655Z,5.43
2018-03-11T13:14:30.980Z,4.27
2018-03-11T13:15:35.180Z,5.07
2018-03-11T13:16:39.404Z,4.97
2018-03-11T13:17:43.609Z,3.90
2018-03-11T13:18:48.748Z,4.67
2018-03-11T13:20:11.208Z,4.47
2018-03-11T13:21:15.775Z,5.03
2018-03-11T13:22:23.918Z,4.43
2018-03-11T13:23:29.761Z,4.13
2018-03-11T13:24:33.927Z,4.60
2018-03-11T13:25:38.136Z,4.43
2018-03-11T13:26:42.348Z,4.17
2018-03-11T13:28:04.309Z,4.57
2018-03-11T13:29:08.535Z,4.07
2018-03-11T13:30:12.795Z,4.23
2018-03-11T13:31:22.264Z,3.97
2018-03-11T13:32:46.742Z,4.50
2018-03-11T13:34:11.102Z,4.00
2018-03-11T13:35:16.552Z,3.60
2018-03-11T13:36:23.820Z,3.70
2018-03-11T13:37:28.257Z,4.97
2018-03-11T13:38:52.917Z,3.40
2018-03-11T13:40:15.976Z,3.40
2018-03-11T13:41:24.239Z,3.47
2018-03-11T13:42:29.621Z,3.30
2018-03-11T13:43:33.861Z,3.20
2018-03-11T13:44:38.651Z,3.20
2018-03-11T13:46:02.098Z,3.50
2018-03-11T13:47:11.053Z,3.57
2018-03-11T13:48:18.970Z,3.80
2018-03-11T13:49:26.427Z,3.53
2018-03-11T13:50:31.974Z,3.50
2018-03-11T13:51:55.118Z,3.87
2018-03-11T13:53:22.388Z,3.60
2018-03-11T13:54:29.666Z,3.73
2018-03-11T13:55:35.097Z,4.17
2018-03-11T13:56:39.387Z,3.77
2018-03-11T13:59:30.201Z,3.60
2018-03-11T14:00:34.563Z,3.53
2018-03-11T14:01:38.743Z,3.50
2018-03-11T14:02:43.694Z,3.20
2018-03-11T14:03:55.212Z,3.53
2018-03-11T14:05:02.763Z,3.40
2018-03-11T14:06:07.013Z,3.90
2018-03-11T14:07:11.258Z,3.80
2018-03-11T14:08:21.556Z,3.60
2018-03-11T14:09:30.856Z,4.43
2018-03-11T14:10:35.153Z,3.47
2018-03-11T14:11:39.337Z,2.93
2018-03-11T14:12:43.499Z,4.10
2018-03-11T14:13:51.850Z,3.90
2018-03-11T14:14:57.232Z,3.50
2018-03-11T14:16:03.069Z,3.70
2018-03-11T14:17:08.039Z,3.53
2018-03-11T14:18:12.222Z,3.50
2018-03-11T14:19:21.988Z,3.93
2018-03-11T14:20:38.618Z,3.73
2018-03-11T14:21:42.792Z,4.20
2018-03-11T14:22:53.570Z,3.40
2018-03-11T14:24:01.769Z,3.30
2018-03-11T14:25:06.517Z,3.03
2018-03-11T14:26:10.759Z,3.53
2018-03-11T14:27:17.789Z,3.17
2018-03-11T14:28:28.654Z,3.47
2018-03-11T14:29:34.537Z,2.70
2018-03-11T14:30:38.707Z,3.10
2018-03-11T14:31:43.704Z,3.40
2018-03-11T14:32:53.052Z,3.73
2018-03-11T14:34:00.278Z,3.10
2018-03-11T14:35:04.858Z,3.30
2018-03-11T14:36:09.542Z,3.30
2018-03-11T14:37:13.861Z,3.10
2018-03-11T14:38:25.954Z,3.67